createdAt,value
2023-05-17T00:00:03.633Z,3.30
2023-05-17T00:02:31.363Z,2.78
2023-05-17T00:05:00.446Z,4.43
2023-05-17T00:07:28.105Z,3.53
2023-05-17T00:09:55.851Z,3.77
2023-05-17T00:12:23.767Z,3.93
2023-05-17T00:14:51.427Z,2.60
2023-05-17T00:17:19.037Z,2.65
2023-05-17T00:19:46.801Z,2.93
2023-05-17T00:22:16.066Z,2.85
2023-05-17T00:24:44.047Z,3.00
2023-05-17T00:27:11.682Z,3.38
2023-05-17T00:29:39.310Z,3.17
2023-05-17T00:32:07.595Z,2.80
2023-05-17T00:34:35.352Z,2.72
2023-05-17T00:37:03.157Z,2.58
2023-05-17T00:39:32.144Z,2.53
2023-05-17T00:42:01.922Z,3.07
2023-05-17T00:44:29.580Z,3.53
2023-05-17T00:46:59.631Z,3.17
2023-05-17T00:49:27.720Z,2.65
2023-05-17T00:51:55.929Z,2.78
2023-05-17T00:54:23.991Z,2.57
2023-05-17T00:56:53.484Z,2.47
2023-05-17T00:59:22.394Z,2.13
2023-05-17T01:01:51.460Z,2.58
2023-05-17T01:04:19.759Z,2.47
2023-05-17T01:06:47.513Z,2.23
2023-05-17T01:09:15.265Z,2.28
2023-05-17T01:11:54.984Z,2.23
2023-05-17T01:14:34.902Z,2.67
2023-05-17T01:17:07.083Z,2.63
2023-05-17T01:19:55.198Z,2.42
2023-05-17T01:22:35.308Z,2.80
2023-05-17T01:25:13.822Z,3.30
2023-05-17T01:27:48.103Z,2.22
2023-05-17T01:30:18.983Z,2.07
2023-05-17T01:32:48.966Z,2.53
2023-05-17T01:35:18.939Z,3.20
2023-05-17T01:37:48.183Z,2.70
2023-05-17T01:40:19.017Z,2.17
2023-05-17T01:42:54.579Z,2.00
2023-05-17T01:45:28.466Z,2.55
2023-05-17T01:48:17.484Z,2.20
2023-05-17T01:50:51.554Z,2.15
2023-05-17T01:53:27.981Z,2.45
2023-05-17T01:56:05.483Z,2.38
2023-05-17T01:58:45.730Z,2.40
2023-05-17T02:01:18.596Z,2.42
2023-05-17T02:03:51.082Z,2.73
2023-05-17T02:06:20.384Z,2.40
2023-05-17T02:08:49.984Z,2.13
2023-05-17T02:11:19.328Z,2.53
2023-05-17T02:13:50.052Z,2.23
2023-05-17T02:16:19.419Z,2.10
2023-05-17T02:18:48.548Z,2.22
2023-05-17T02:21:18.916Z,2.17
2023-05-17T02:23:49.041Z,2.20
2023-05-17T02:26:24.252Z,2.00
2023-05-17T02:28:55.171Z,2.22
2023-05-17T02:31:25.333Z,2.20
2023-05-17T02:33:55.200Z,2.10
2023-05-17T02:36:24.466Z,2.30
2023-05-17T02:38:53.766Z,2.08
2023-05-17T02:41:23.286Z,1.83
2023-05-17T02:43:52.626Z,1.93
2023-05-17T02:46:23.566Z,1.90
2023-05-17T02:48:52.951Z,2.37
2023-05-17T02:51:22.148Z,3.92
2023-05-17T02:53:51.244Z,1.80
2023-05-17T02:56:20.535Z,2.15
2023-05-17T02:58:49.893Z,1.80
2023-05-17T03:01:19.052Z,1.83
2023-05-17T03:03:52.215Z,1.95
2023-05-17T03:06:23.516Z,1.80
2023-05-17T03:09:08.828Z,2.30
2023-05-17T03:11:38.057Z,2.15
2023-05-17T03:14:11.559Z,1.88
2023-05-17T03:16:40.989Z,1.90
2023-05-17T03:19:12.815Z,2.17
2023-05-17T03:21:42.266Z,1.93
2023-05-17T03:24:11.645Z,1.98
2023-05-17T03:26:41.076Z,1.67
2023-05-17T03:29:10.250Z,1.73
2023-05-17T03:31:40.068Z,1.98
2023-05-17T03:34:09.480Z,2.63
2023-05-17T03:36:41.140Z,1.92
2023-05-17T03:39:10.380Z,1.65
2023-05-17T03:41:39.621Z,1.88
2023-05-17T03:44:22.665Z,2.10
2023-05-17T03:46:54.031Z,1.97
2023-05-17T03:49:23.389Z,1.83
2023-05-17T03:51:54.152Z,2.20
2023-05-17T03:54:23.517Z,1.75
2023-05-17T03:56:52.706Z,2.20
2023-05-17T03:59:21.891Z,1.90
2023-05-17T04:01:51.229Z,2.13
2023-05-17T04:04:20.360Z,1.60
2023-05-17T05:10:33.811Z,1.70
2023-05-17T07:23:25.377Z,1.00
2023-05-17T07:25:53.025Z,1.53
2023-05-17T07:28:20.652Z,1.40
2023-05-17T07:30:48.341Z,1.15
2023-05-17T07:33:16.062Z,2.15
2023-05-17T07:35:43.696Z,1.45
2023-05-17T07:38:11.572Z,1.50
2023-05-17T07:40:40.666Z,1.20
2023-05-17T07:43:13.275Z,1.40
2023-05-17T07:45:41.008Z,1.45
2023-05-17T07:48:08.925Z,1.08
2023-05-17T07:50:36.692Z,1.30
2023-05-17T07:53:04.334Z,1.45
2023-05-17T07:55:31.953Z,1.08
2023-05-17T07:58:01.097Z,1.50
2023-05-17T08:00:29.266Z,1.70
2023-05-17T08:02:57.448Z,1.37
2023-05-17T08:05:25.373Z,1.83
2023-05-17T08:07:53.448Z,1.70
2023-05-17T08:10:21.496Z,1.60
2023-05-17T08:12:49.138Z,1.37
2023-05-17T08:15:18.128Z,1.37
2023-05-17T08:17:45.904Z,0.93
2023-05-17T08:20:14.010Z,1.35
2023-05-17T08:22:41.676Z,1.30
2023-05-17T08:25:09.799Z,1.20
2023-05-17T08:27:37.473Z,1.50
2023-05-17T08:30:09.155Z,1.83
2023-05-17T08:32:41.010Z,0.88
2023-05-17T08:35:08.953Z,1.30
2023-05-17T08:37:36.890Z,1.90
2023-05-17T08:40:05.123Z,1.23
2023-05-17T08:42:33.471Z,1.30
2023-05-17T08:45:01.176Z,1.13
2023-05-17T08:47:32.221Z,1.17
2023-05-17T08:50:02.286Z,1.00
2023-05-17T08:52:31.450Z,1.63
2023-05-17T08:54:59.395Z,1.20
2023-05-17T08:57:29.065Z,1.30
2023-05-17T08:59:57.123Z,1.23
2023-05-17T09:02:25.619Z,1.50
2023-05-17T09:04:55.792Z,1.35
2023-05-17T09:07:25.658Z,1.20
2023-05-17T09:09:54.113Z,1.00
2023-05-17T09:12:23.495Z,1.30
2023-05-17T09:14:53.136Z,1.23
2023-05-17T09:17:21.822Z,1.30
2023-05-17T09:19:50.370Z,1.20
2023-05-17T09:22:19.804Z,1.10
2023-05-17T09:24:48.921Z,0.80
2023-05-17T09:27:18.259Z,1.10
2023-05-17T09:29:47.661Z,1.20
2023-05-17T09:32:16.499Z,1.10
2023-05-17T09:34:46.909Z,0.93
2023-05-17T09:37:16.314Z,1.13
2023-05-17T09:39:46.040Z,1.20
2023-05-17T09:42:16.778Z,1.20
2023-05-17T09:44:49.396Z,0.90
2023-05-17T09:47:27.502Z,1.23
2023-05-17T09:49:57.404Z,1.40
2023-05-17T09:52:25.861Z,1.05
2023-05-17T09:54:54.568Z,1.40
2023-05-17T09:57:24.059Z,1.05
2023-05-17T09:59:53.069Z,1.08
2023-05-17T10:02:23.597Z,1.35
2023-05-17T10:04:52.626Z,1.20
2023-05-17T10:07:21.440Z,1.20
2023-05-17T10:09:50.518Z,1.10
2023-05-17T10:12:20.053Z,1.92
2023-05-17T10:14:49.844Z,1.47
2023-05-17T10:17:19.360Z,1.20
2023-05-17T10:19:48.159Z,1.13
2023-05-17T10:22:23.117Z,1.08
2023-05-17T10:24:52.332Z,1.42
2023-05-17T10:27:21.561Z,1.10
2023-05-17T10:29:53.040Z,1.10
2023-05-17T10:32:23.380Z,1.07
2023-05-17T10:35:02.038Z,1.17
2023-05-17T10:37:39.969Z,1.08
2023-05-17T10:40:12.968Z,1.05
2023-05-17T10:42:43.444Z,0.77
2023-05-17T10:45:14.715Z,1.38
2023-05-17T10:47:43.511Z,1.17
2023-05-17T10:50:14.906Z,1.15
2023-05-17T10:52:48.294Z,0.85
2023-05-17T10:55:19.798Z,1.10
2023-05-17T10:58:10.419Z,1.20
2023-05-17T11:00:42.336Z,1.17
2023-05-17T11:03:15.303Z,1.23
2023-05-17T11:05:44.716Z,1.33
2023-05-17T11:08:17.764Z,1.08
2023-05-17T11:11:10.130Z,0.90
2023-05-17T11:13:52.292Z,1.23
2023-05-17T11:16:24.141Z,1.00
2023-05-17T11:18:53.520Z,1.33
2023-05-17T11:21:25.563Z,0.95
2023-05-17T11:23:56.635Z,0.93
2023-05-17T11:26:29.569Z,1.27
2023-05-17T11:29:03.291Z,0.83
2023-05-17T11:31:33.484Z,1.20
2023-05-17T11:34:01.601Z,0.90
2023-05-17T11:36:29.257Z,1.38
2023-05-17T11:39:13.884Z,0.90
2023-05-17T11:41:49.614Z,1.17
2023-05-17T11:44:19.318Z,0.90
2023-05-17T11:46:48.396Z,1.17
2023-05-17T11:49:26.859Z,1.13
2023-05-17T11:52:01.520Z,1.15
2023-05-17T11:54:31.159Z,2.45
2023-05-17T11:56:59.848Z,0.80
2023-05-17T11:59:27.535Z,1.20
2023-05-17T12:01:56.536Z,1.00
2023-05-17T12:04:25.887Z,1.10
2023-05-17T12:06:54.409Z,1.10
2023-05-17T12:09:23.259Z,0.93
2023-05-17T12:11:51.056Z,0.70
2023-05-17T12:14:20.355Z,0.90
2023-05-17T12:16:52.096Z,0.90
2023-05-17T12:19:23.471Z,0.98
2023-05-17T12:21:51.716Z,1.20
2023-05-17T12:24:19.496Z,1.00
2023-05-17T12:26:48.385Z,0.80
2023-05-17T12:29:22.756Z,1.10
2023-05-17T12:31:53.380Z,1.35
2023-05-17T12:34:23.327Z,1.17
2023-05-17T12:36:52.608Z,1.17
2023-05-17T12:39:23.901Z,1.20
2023-05-17T12:41:52.541Z,0.90
2023-05-17T12:44:21.040Z,0.83
2023-05-17T12:46:53.441Z,0.90
2023-05-17T12:49:23.137Z,3.13
2023-05-17T12:51:51.007Z,0.80
2023-05-17T12:54:27.304Z,1.10
2023-05-17T12:56:55.220Z,0.80
2023-05-17T12:59:25.518Z,0.88
2023-05-17T13:01:55.573Z,0.85
2023-05-17T13:04:31.665Z,0.93
2023-05-17T13:07:01.634Z,0.90
2023-05-17T13:09:32.093Z,1.03
2023-05-17T13:12:01.129Z,0.90
2023-05-17T13:14:38.806Z,1.02
2023-05-17T13:17:08.117Z,1.33
2023-05-17T13:19:38.220Z,1.00
2023-05-17T13:22:06.944Z,1.08
2023-05-17T13:24:35.733Z,0.80
2023-05-17T13:27:03.926Z,0.80
2023-05-17T13:29:39.332Z,1.17
2023-05-17T13:32:09.797Z,0.75
2023-05-17T13:34:39.398Z,1.03
2023-05-17T13:37:10.551Z,1.00
2023-05-17T13:39:39.582Z,0.77
2023-05-17T13:42:07.980Z,1.42
2023-05-17T13:44:35.600Z,0.90
2023-05-17T13:47:03.589Z,0.77
2023-05-17T13:49:31.308Z,0.90
2023-05-17T13:52:00.701Z,0.80
2023-05-17T13:54:28.444Z,1.02
2023-05-17T13:56:57.388Z,0.95
2023-05-17T13:59:25.035Z,1.00
2023-05-17T14:01:53.078Z,0.80
2023-05-17T14:04:21.294Z,0.88
2023-05-17T14:06:49.559Z,0.70
2023-05-17T14:09:20.352Z,0.73
2023-05-17T14:11:48.104Z,0.90
2023-05-17T14:14:15.788Z,0.90
2023-05-17T14:16:43.452Z,0.82
2023-05-17T14:19:11.301Z,0.80
2023-05-17T14:21:39.034Z,0.82
2023-05-17T14:24:07.326Z,1.10
2023-05-17T14:26:36.727Z,0.90
2023-05-17T14:29:05.597Z,0.82
2023-05-17T14:31:33.354Z,0.98
2023-05-17T14:34:01.663Z,0.93
2023-05-17T14:36:29.438Z,1.00
2023-05-17T14:38:57.103Z,0.88
2023-05-17T14:41:24.735Z,0.80
2023-05-17T14:43:53.726Z,0.75
2023-05-17T14:46:21.405Z,1.00
2023-05-17T14:48:52.016Z,0.90
2023-05-17T14:51:19.838Z,0.80
2023-05-17T14:53:47.703Z,0.90
2023-05-17T14:56:16.750Z,0.65
2023-05-17T14:58:44.475Z,0.80
2023-05-17T15:01:13.493Z,0.90
2023-05-17T15:03:41.296Z,1.13
2023-05-17T15:06:11.674Z,0.93
2023-05-17T15:08:39.745Z,0.80
2023-05-17T15:11:07.511Z,1.27
2023-05-17T15:13:35.242Z,0.90
2023-05-17T15:16:04.954Z,1.10
2023-05-17T15:18:34.013Z,1.00
2023-05-17T15:21:02.859Z,0.70
2023-05-17T15:23:30.641Z,0.95
2023-05-17T15:25:58.339Z,0.87
2023-05-17T15:28:26.137Z,0.77
2023-05-17T15:31:01.550Z,0.90
2023-05-17T15:33:30.712Z,0.85
2023-05-17T15:35:59.763Z,0.85
2023-05-17T15:38:27.409Z,0.90
2023-05-17T15:41:03.860Z,1.10
2023-05-17T15:43:32.188Z,1.00
2023-05-17T15:46:00.120Z,1.00
2023-05-17T15:48:29.230Z,1.13
2023-05-17T15:50:57.334Z,1.00
2023-05-17T15:53:27.122Z,1.10
2023-05-17T15:55:54.884Z,1.23
2023-05-17T15:58:24.253Z,1.20
2023-05-17T16:00:52.332Z,1.23
2023-05-17T16:03:20.051Z,1.40
2023-05-17T16:05:47.797Z,1.30
2023-05-17T16:08:15.571Z,1.40
2023-05-17T16:10:45.921Z,0.90
2023-05-17T16:13:13.634Z,1.55
2023-05-17T16:15:41.367Z,1.30
2023-05-17T16:18:10.622Z,1.20
2023-05-17T16:20:38.506Z,1.40
2023-05-17T16:23:07.337Z,1.23
2023-05-17T16:25:36.036Z,1.10
2023-05-17T16:28:05.113Z,1.20
2023-05-17T16:30:32.760Z,1.17
2023-05-17T16:33:00.449Z,1.43
2023-05-17T16:35:28.804Z,1.35
2023-05-17T16:37:56.619Z,1.00
2023-05-17T16:40:24.311Z,1.42
2023-05-17T16:42:51.923Z,1.20
2023-05-17T16:45:21.334Z,2.00
2023-05-17T16:47:49.017Z,0.88
2023-05-17T16:50:16.841Z,1.23
2023-05-17T16:52:45.441Z,1.27
2023-05-17T16:55:13.163Z,1.25
2023-05-17T16:57:41.966Z,0.82
2023-05-17T17:00:11.978Z,1.07
2023-05-17T17:02:41.161Z,1.08
2023-05-17T17:05:10.334Z,1.30
2023-05-17T17:07:37.991Z,1.30
2023-05-17T17:10:06.268Z,1.38
2023-05-17T17:12:33.925Z,1.38
2023-05-17T17:15:02.186Z,5.03
2023-05-17T17:17:30.631Z,5.37
2023-05-17T17:19:59.722Z,5.73
2023-05-17T17:22:27.371Z,3.53
2023-05-17T17:24:55.027Z,5.43
2023-05-17T17:27:22.681Z,5.30
2023-05-17T17:29:50.493Z,6.77
2023-05-17T17:32:18.196Z,4.17
2023-05-17T17:34:45.957Z,4.47
2023-05-17T17:37:15.052Z,6.13
2023-05-17T17:39:42.848Z,3.83
2023-05-17T17:42:10.580Z,5.53
2023-05-17T17:44:38.416Z,4.97
2023-05-17T17:47:06.373Z,4.70
2023-05-17T17:49:35.953Z,6.90
2023-05-17T17:52:03.595Z,4.80
2023-05-17T17:54:32.613Z,4.43
2023-05-17T17:57:00.240Z,5.37
2023-05-17T17:59:27.860Z,3.93
2023-05-17T18:01:55.514Z,4.10
2023-05-17T18:04:23.273Z,6.30
2023-05-17T18:06:50.981Z,5.13
2023-05-17T18:09:18.629Z,4.47
2023-05-17T18:11:47.770Z,4.50
2023-05-17T18:14:15.691Z,4.17
2023-05-17T18:16:43.362Z,3.67
2023-05-17T18:19:11.139Z,4.67
2023-05-17T18:21:38.870Z,3.20
2023-05-17T18:24:07.049Z,4.97
2023-05-17T18:26:34.753Z,3.43
2023-05-17T18:29:04.027Z,4.50
2023-05-17T18:31:31.858Z,5.87
2023-05-17T18:33:59.502Z,4.50
2023-05-17T18:36:27.591Z,5.47
2023-05-17T18:38:58.527Z,4.40
2023-05-17T18:41:26.298Z,6.40
2023-05-17T18:43:54.254Z,4.83
2023-05-17T18:46:23.337Z,3.77
2023-05-17T18:48:52.579Z,3.53
2023-05-17T18:51:20.287Z,3.07
2023-05-17T18:53:47.973Z,3.10
2023-05-17T18:56:22.451Z,4.37
2023-05-17T18:58:52.076Z,4.10
2023-05-17T19:01:19.824Z,3.93
2023-05-17T19:03:51.366Z,4.57
2023-05-17T19:06:19.509Z,4.97
2023-05-17T19:08:47.340Z,5.07
2023-05-17T19:11:14.988Z,4.73
2023-05-17T19:13:42.876Z,3.73
2023-05-17T19:16:10.562Z,4.47
2023-05-17T19:18:38.267Z,4.17
2023-05-17T19:21:07.432Z,4.63
2023-05-17T19:23:36.025Z,3.73
2023-05-17T19:26:03.737Z,3.20
2023-05-17T19:28:33.028Z,5.37
2023-05-17T22:53:57.925Z,4.90
2023-05-17T22:56:26.152Z,3.60
2023-05-17T22:58:53.835Z,4.33
2023-05-17T23:01:21.522Z,3.83
2023-05-17T23:03:50.637Z,4.33
2023-05-17T23:06:21.872Z,3.23
2023-05-17T23:08:49.938Z,5.43
2023-05-17T23:11:18.022Z,4.03
2023-05-17T23:13:45.700Z,4.53
2023-05-17T23:16:13.941Z,3.73
2023-05-17T23:18:41.719Z,3.63
2023-05-17T23:21:12.040Z,4.03
2023-05-17T23:23:40.587Z,3.50
2023-05-17T23:26:08.293Z,4.20
2023-05-17T23:28:37.668Z,3.57
2023-05-17T23:31:05.897Z,3.67
2023-05-17T23:33:33.601Z,3.63
2023-05-17T23:36:01.322Z,2.90
2023-05-17T23:38:30.417Z,3.70
2023-05-17T23:40:58.253Z,3.63
2023-05-17T23:43:26.286Z,2.77
2023-05-17T23:45:54.062Z,4.07
2023-05-17T23:48:25.639Z,3.00
2023-05-17T23:50:53.399Z,4.17
2023-05-17T23:53:23.391Z,3.00
2023-05-17T23:55:52.521Z,2.80
2023-05-17T23:58:20.169Z,3.17
